Terminal Aerodrome Forecast
Issued by NWS Cleveland, OH

Home | Current Version | Previous Version | Graphics & Text | Print | Product List | Glossary Off
Versions: 1 2 3 4 5 6 7 8 9 10 11 12 13 14 15

000
FTUS41 KCLE 300540
TAFYNG
TAF
KYNG 300540Z 3006/3106 VRB03KT P6SM VCSH BKN050 OVC100
      TEMPO 3007/3010 3SM -TSRA BR SCT015 OVC035CB
     FM301100 VRB03KT 5SM BR VCSH OVC040
     FM301500 21008KT P6SM BKN050 OVC150
     FM302000 23008KT P6SM VCTS BKN050CB
     FM310300 22004KT P6SM FEW150 SCT250=

USA.gov is the U.S. government's official web portal to all federal, state and local government web resources and services.